createdAt,value
2023-02-25T00:00:24.348Z,2.33
2023-02-25T00:03:00.685Z,3.10
2023-02-25T00:05:33.613Z,3.77
2023-02-25T00:08:06.549Z,2.37
2023-02-25T00:10:39.276Z,2.90
2023-02-25T00:13:18.094Z,3.07
2023-02-25T00:15:52.712Z,3.37
2023-02-25T00:18:28.237Z,2.63
2023-02-25T00:21:01.570Z,1.80
2023-02-25T00:23:34.383Z,1.87
2023-02-25T00:26:08.925Z,1.10
2023-02-25T00:28:41.740Z,1.20
2023-02-25T00:31:16.744Z,1.90
2023-02-25T00:33:49.719Z,1.30
2023-02-25T00:36:24.319Z,1.13
2023-02-25T00:38:58.133Z,1.67
2023-02-25T00:41:31.465Z,1.00
2023-02-25T00:44:04.652Z,1.10
2023-02-25T00:46:38.861Z,1.20
2023-02-25T00:49:16.662Z,1.30
2023-02-25T00:51:57.076Z,1.37
2023-02-25T00:54:32.878Z,1.60
2023-02-25T00:57:05.563Z,1.30
2023-02-25T00:59:45.490Z,1.60
2023-02-25T01:02:19.798Z,1.80
2023-02-25T01:04:52.616Z,1.70
2023-02-25T01:07:25.485Z,1.67
2023-02-25T01:10:00.148Z,1.50
2023-02-25T01:12:32.834Z,2.23
2023-02-25T01:15:06.082Z,1.93
2023-02-25T01:17:40.169Z,1.87
2023-02-25T01:20:13.902Z,1.80
2023-02-25T01:22:46.805Z,1.73
2023-02-25T01:25:19.580Z,1.97
2023-02-25T01:27:54.642Z,1.63
2023-02-25T01:30:27.539Z,1.80
2023-02-25T01:33:01.985Z,2.00
2023-02-25T01:35:39.240Z,2.07
2023-02-25T01:38:11.969Z,1.50
2023-02-25T01:40:44.739Z,2.40
2023-02-25T01:43:19.862Z,2.33
2023-02-25T01:45:54.252Z,1.40
2023-02-25T01:48:30.063Z,2.10
2023-02-25T01:51:06.482Z,1.80
2023-02-25T01:53:41.606Z,2.00
2023-02-25T01:56:17.341Z,2.00
2023-02-25T01:58:50.225Z,2.67
2023-02-25T02:01:24.410Z,2.30
2023-02-25T02:03:58.530Z,2.57
2023-02-25T02:06:33.900Z,2.40
2023-02-25T02:09:19.138Z,2.27
2023-02-25T02:11:51.901Z,2.30
2023-02-25T02:14:27.914Z,2.40
2023-02-25T02:17:06.481Z,1.30
2023-02-25T02:20:09.863Z,2.07
2023-02-25T02:22:47.574Z,1.30
2023-02-25T02:25:41.682Z,2.20
2023-02-25T02:28:26.564Z,2.23
2023-02-25T02:31:23.312Z,2.03
2023-02-25T02:34:00.643Z,1.63
2023-02-25T02:36:39.854Z,2.23
2023-02-25T02:39:16.345Z,1.70
2023-02-25T02:41:52.847Z,2.33
2023-02-25T02:44:28.365Z,1.80
2023-02-25T02:47:02.360Z,2.30
2023-02-25T02:49:38.903Z,2.10
2023-02-25T02:52:15.330Z,1.90
2023-02-25T02:54:53.435Z,1.60
2023-02-25T02:57:28.216Z,2.10
2023-02-25T03:00:12.537Z,2.10
2023-02-25T03:02:47.496Z,1.83
2023-02-25T03:05:22.435Z,2.47
2023-02-25T03:07:59.302Z,1.67
2023-02-25T03:10:35.978Z,2.10
2023-02-25T03:13:08.720Z,2.03
2023-02-25T03:15:41.905Z,1.80
2023-02-25T03:18:21.207Z,1.83
2023-02-25T03:20:56.488Z,2.27
2023-02-25T03:23:30.475Z,1.97
2023-02-25T03:26:09.141Z,1.83
2023-02-25T03:28:44.549Z,1.73
2023-02-25T03:31:21.493Z,2.00
2023-02-25T03:33:56.496Z,1.37
2023-02-25T03:36:32.601Z,2.00
2023-02-25T03:39:08.307Z,1.30
2023-02-25T03:41:44.657Z,1.60
2023-02-25T03:44:20.974Z,1.70
2023-02-25T03:46:54.739Z,1.87
2023-02-25T03:49:28.706Z,1.63
2023-02-25T03:52:04.406Z,1.80
2023-02-25T03:54:37.209Z,1.40
2023-02-25T03:57:10.214Z,1.53
2023-02-25T03:59:42.800Z,1.63
2023-02-25T04:02:16.848Z,1.50
2023-02-25T04:04:49.622Z,1.43
2023-02-25T04:07:23.903Z,1.13
2023-02-25T04:09:56.777Z,1.77
2023-02-25T04:12:29.441Z,1.40
2023-02-25T04:15:02.204Z,1.80
2023-02-25T04:17:35.512Z,1.30
2023-02-25T04:20:08.658Z,1.00
2023-02-25T04:22:42.822Z,1.20
2023-02-25T04:25:15.606Z,1.27
2023-02-25T04:27:48.453Z,1.30
2023-02-25T04:30:21.317Z,1.23
2023-02-25T04:32:54.342Z,1.10
2023-02-25T04:35:27.106Z,1.10
2023-02-25T04:38:01.246Z,1.13
2023-02-25T04:40:34.662Z,1.40
2023-02-25T04:43:09.769Z,1.23
2023-02-25T04:45:42.416Z,1.20
2023-02-25T04:48:15.155Z,1.33
2023-02-25T04:50:47.894Z,1.20
2023-02-25T04:53:22.121Z,1.40
2023-02-25T04:55:54.913Z,1.30
2023-02-25T04:58:27.735Z,1.00
2023-02-25T05:01:01.179Z,1.40
2023-02-25T05:03:34.604Z,0.70
2023-02-25T05:06:07.852Z,1.23
2023-02-25T05:08:42.683Z,1.17
2023-02-25T05:11:19.479Z,1.33
2023-02-25T05:13:52.183Z,1.47
2023-02-25T05:16:25.947Z,1.40
2023-02-25T05:18:59.212Z,1.63
2023-02-25T05:21:31.958Z,1.30
2023-02-25T05:24:06.601Z,1.00
2023-02-25T05:26:39.362Z,1.27
2023-02-25T05:29:12.924Z,1.20
2023-02-25T05:31:45.852Z,1.40
2023-02-25T05:34:18.821Z,0.90
2023-02-25T05:36:51.485Z,1.50
2023-02-25T05:39:25.660Z,1.40
2023-02-25T05:41:58.429Z,1.40
2023-02-25T05:44:31.289Z,1.10
2023-02-25T05:47:08.115Z,1.40
2023-02-25T05:49:42.129Z,1.27
2023-02-25T05:52:15.143Z,1.53
2023-02-25T05:54:51.689Z,1.50
2023-02-25T05:57:25.612Z,1.30
2023-02-25T05:59:58.379Z,1.30
2023-02-25T06:02:31.908Z,1.50
2023-02-25T06:05:04.907Z,2.10
2023-02-25T06:07:37.537Z,1.10
2023-02-25T06:10:12.904Z,1.80
2023-02-25T06:12:46.581Z,1.57
2023-02-25T06:15:19.728Z,1.50
2023-02-25T06:17:52.382Z,1.50
2023-02-25T06:20:25.920Z,1.73
2023-02-25T06:22:58.623Z,1.57
2023-02-25T06:25:32.888Z,1.60
2023-02-25T06:28:05.786Z,1.07
2023-02-25T06:30:38.554Z,1.50
2023-02-25T06:33:13.776Z,1.63
2023-02-25T06:35:51.069Z,1.40
2023-02-25T06:38:23.794Z,1.90
2023-02-25T06:40:59.034Z,1.40
2023-02-25T06:43:31.925Z,1.20
2023-02-25T06:46:05.574Z,1.00
2023-02-25T06:48:38.273Z,1.00
2023-02-25T06:51:15.119Z,1.20
2023-02-25T06:53:48.635Z,1.50
2023-02-25T06:56:23.305Z,0.90
2023-02-25T06:58:59.680Z,1.50
2023-02-25T07:01:32.503Z,1.43
2023-02-25T07:04:06.514Z,1.03
2023-02-25T07:06:39.389Z,1.47
2023-02-25T07:09:15.886Z,1.50
2023-02-25T07:11:50.107Z,1.13
2023-02-25T07:14:24.510Z,1.13
2023-02-25T07:16:57.270Z,1.20
2023-02-25T07:19:29.960Z,1.50
2023-02-25T07:22:03.231Z,1.50
2023-02-25T07:24:36.275Z,1.40
2023-02-25T07:27:10.731Z,1.13
2023-02-25T07:29:43.489Z,1.10
2023-02-25T07:32:16.417Z,1.60
2023-02-25T07:34:49.309Z,1.13
2023-02-25T07:37:21.989Z,1.20
2023-02-25T07:39:54.659Z,1.40
2023-02-25T07:42:28.917Z,0.90
2023-02-25T07:45:02.263Z,1.33
2023-02-25T07:47:35.134Z,1.17
2023-02-25T07:50:11.589Z,1.50
2023-02-25T07:52:45.408Z,1.53
2023-02-25T07:55:18.226Z,1.37
2023-02-25T07:57:52.332Z,1.30
2023-02-25T08:00:25.259Z,1.30
2023-02-25T08:02:58.009Z,1.20
2023-02-25T08:05:31.816Z,1.30
2023-02-25T08:08:07.696Z,0.97
2023-02-25T08:10:40.519Z,1.30
2023-02-25T08:13:14.592Z,1.30
2023-02-25T08:15:47.490Z,1.13
2023-02-25T08:18:20.232Z,1.00
2023-02-25T08:20:55.386Z,1.33
2023-02-25T08:23:31.225Z,1.20
2023-02-25T08:26:03.969Z,1.03
2023-02-25T08:28:38.087Z,1.23
2023-02-25T08:31:13.556Z,1.20
2023-02-25T08:34:06.343Z,1.27
2023-02-25T08:36:39.328Z,1.03
2023-02-25T08:39:12.547Z,1.10
2023-02-25T08:41:45.847Z,0.80
2023-02-25T08:44:20.919Z,0.90
2023-02-25T08:46:53.836Z,1.20
2023-02-25T08:49:26.647Z,0.70
2023-02-25T08:51:59.632Z,1.60
2023-02-25T08:54:32.592Z,1.00
2023-02-25T08:57:05.736Z,0.90
2023-02-25T08:59:39.918Z,1.10
2023-02-25T09:02:15.070Z,0.80
2023-02-25T09:04:47.944Z,1.57
2023-02-25T09:07:22.155Z,1.20
2023-02-25T09:09:54.950Z,1.13
2023-02-25T09:12:27.693Z,1.10
2023-02-25T09:15:01.867Z,0.90
2023-02-25T09:17:34.582Z,1.17
2023-02-25T09:20:08.268Z,1.10
2023-02-25T09:22:41.184Z,1.10
2023-02-25T09:25:13.996Z,1.00
2023-02-25T09:27:46.739Z,1.00
2023-02-25T09:30:20.896Z,1.10
2023-02-25T09:32:58.210Z,1.23
2023-02-25T09:35:32.199Z,1.40
2023-02-25T09:38:05.412Z,1.27
2023-02-25T09:40:38.532Z,1.10
2023-02-25T09:43:28.128Z,1.00
2023-02-25T09:46:05.618Z,0.97
2023-02-25T09:48:41.908Z,1.20
2023-02-25T09:51:19.273Z,0.90
2023-02-25T09:53:54.573Z,1.10
2023-02-25T09:56:28.101Z,1.00
2023-02-25T09:59:01.007Z,0.90
2023-02-25T10:01:38.892Z,1.10
2023-02-25T10:04:14.874Z,1.33
2023-02-25T10:06:48.585Z,1.00
2023-02-25T10:09:26.237Z,1.20
2023-02-25T10:12:08.155Z,1.03
2023-02-25T10:14:51.266Z,1.10
2023-02-25T10:17:28.075Z,1.10
2023-02-25T10:20:18.235Z,1.10
2023-02-25T10:22:56.359Z,1.07
2023-02-25T10:25:30.679Z,0.97
2023-02-25T10:28:07.569Z,0.97
2023-02-25T10:30:48.001Z,1.00
2023-02-25T10:33:24.508Z,0.97
2023-02-25T10:36:00.687Z,1.00
2023-02-25T10:38:34.125Z,0.90
2023-02-25T10:41:07.054Z,1.10
2023-02-25T10:43:39.734Z,1.40
2023-02-25T10:46:15.296Z,1.73
2023-02-25T10:48:57.618Z,1.30
2023-02-25T10:51:30.727Z,1.50
2023-02-25T10:54:05.055Z,1.20
2023-02-25T10:56:42.487Z,1.20
2023-02-25T10:59:31.222Z,1.20
2023-02-25T11:02:06.922Z,1.13
2023-02-25T11:04:41.197Z,1.10
2023-02-25T11:07:24.573Z,1.43
2023-02-25T11:10:07.641Z,2.23
2023-02-25T11:12:41.329Z,1.43
2023-02-25T11:15:43.137Z,1.47
2023-02-25T11:18:19.234Z,1.30
2023-02-25T11:20:55.468Z,1.43
2023-02-25T11:23:31.070Z,1.10
2023-02-25T11:26:06.445Z,1.27
2023-02-25T11:28:40.525Z,1.10
2023-02-25T11:31:16.932Z,1.40
2023-02-25T11:33:52.365Z,0.90
2023-02-25T11:36:30.842Z,1.10
2023-02-25T11:39:06.243Z,1.30
2023-02-25T11:41:41.152Z,1.20
2023-02-25T11:44:28.110Z,1.33
2023-02-25T11:47:08.309Z,1.10
2023-02-25T11:49:53.945Z,1.93
2023-02-25T11:52:34.871Z,1.40
2023-02-25T11:55:12.753Z,0.90
2023-02-25T11:57:49.966Z,1.20
2023-02-25T12:00:26.095Z,1.10
2023-02-25T12:03:12.696Z,0.90
2023-02-25T12:05:51.511Z,0.90
2023-02-25T12:08:33.113Z,0.83
2023-02-25T12:11:19.034Z,1.07
2023-02-25T12:14:09.691Z,1.20
2023-02-25T12:17:15.615Z,1.10
2023-02-25T12:20:04.770Z,1.50
2023-02-25T12:22:48.318Z,1.53
2023-02-25T12:25:29.073Z,1.37
2023-02-25T12:28:16.691Z,1.70
2023-02-25T12:31:00.246Z,1.53
2023-02-25T12:33:49.227Z,1.20
2023-02-25T12:36:36.380Z,1.20
2023-02-25T12:39:18.960Z,1.37
2023-02-25T12:41:56.310Z,1.20
2023-02-25T12:44:46.985Z,1.33
2023-02-25T12:47:26.196Z,1.30
2023-02-25T12:50:21.020Z,1.10
2023-02-25T12:53:14.899Z,1.10
2023-02-25T12:55:53.737Z,1.00
2023-02-25T12:58:44.370Z,1.10
2023-02-25T13:01:45.075Z,1.20
2023-02-25T13:04:31.504Z,1.27
2023-02-25T13:07:22.705Z,1.37
2023-02-25T13:10:10.659Z,1.10
2023-02-25T13:12:53.202Z,1.40
2023-02-25T13:15:33.530Z,1.20
2023-02-25T13:18:32.854Z,1.30
2023-02-25T13:21:26.932Z,1.40
2023-02-25T13:24:06.333Z,1.40
2023-02-25T13:26:48.318Z,1.70
2023-02-25T13:29:27.138Z,1.30
2023-02-25T13:32:07.621Z,1.50
2023-02-25T13:34:46.321Z,1.60
2023-02-25T13:37:37.365Z,1.23
2023-02-25T13:40:20.496Z,1.30
2023-02-25T13:43:01.160Z,1.40
2023-02-25T13:45:48.827Z,1.50
2023-02-25T13:48:36.929Z,1.30
2023-02-25T13:51:27.506Z,1.70
2023-02-25T13:54:07.747Z,1.70
2023-02-25T13:57:03.385Z,1.47
2023-02-25T13:59:47.292Z,1.53
2023-02-25T14:02:42.366Z,1.53
2023-02-25T14:05:24.025Z,1.13
2023-02-25T14:08:04.984Z,1.40
2023-02-25T14:10:54.327Z,1.47
2023-02-25T14:13:40.448Z,1.63
2023-02-25T14:16:19.613Z,1.50
2023-02-25T14:18:57.747Z,1.40
2023-02-25T14:21:51.713Z,1.20
2023-02-25T14:24:28.960Z,1.73
2023-02-25T14:27:07.684Z,1.50
2023-02-25T14:29:47.337Z,1.27
2023-02-25T14:32:30.611Z,1.50
2023-02-25T14:35:15.188Z,1.30
2023-02-25T14:37:51.740Z,1.50
2023-02-25T14:40:29.815Z,1.27
2023-02-25T14:43:17.421Z,1.60
2023-02-25T14:45:57.624Z,1.30
2023-02-25T14:48:34.103Z,1.50
2023-02-25T14:51:29.520Z,1.30
2023-02-25T14:54:17.024Z,1.40
2023-02-25T14:56:55.128Z,1.40
2023-02-25T14:59:37.296Z,1.17
2023-02-25T15:02:27.652Z,1.50
2023-02-25T15:05:16.476Z,1.47
2023-02-25T15:08:02.827Z,1.27
2023-02-25T15:10:53.541Z,1.30
2023-02-25T15:13:44.002Z,1.17
2023-02-25T15:16:23.482Z,1.20
2023-02-25T15:19:19.441Z,1.20
2023-02-25T15:22:12.414Z,1.27
2023-02-25T15:24:45.784Z,1.13
2023-02-25T15:27:37.830Z,1.20
2023-02-25T15:30:11.980Z,1.30
2023-02-25T15:32:52.464Z,1.33
2023-02-25T15:35:48.293Z,1.30
2023-02-25T15:38:22.902Z,1.27
2023-02-25T15:40:56.108Z,1.27
2023-02-25T15:43:39.967Z,1.47
2023-02-25T15:46:32.432Z,1.10
2023-02-25T15:49:06.743Z,1.37
2023-02-25T15:51:43.306Z,1.20
2023-02-25T15:54:31.254Z,1.17
2023-02-25T15:57:26.139Z,1.30
2023-02-25T15:59:58.877Z,1.10
2023-02-25T16:02:39.775Z,1.77
2023-02-25T16:05:24.701Z,1.43
2023-02-25T16:08:14.367Z,1.60
2023-02-25T16:10:48.846Z,1.43
2023-02-25T16:13:26.975Z,1.63
2023-02-25T16:16:02.095Z,1.60
2023-02-25T16:18:36.834Z,1.37
2023-02-25T16:21:15.624Z,1.33
2023-02-25T16:23:48.618Z,1.40
2023-02-25T16:26:29.395Z,1.57
2023-02-25T16:29:09.088Z,1.40
2023-02-25T16:31:45.796Z,1.30
2023-02-25T16:34:22.744Z,1.17
2023-02-25T16:37:00.962Z,1.40
2023-02-25T16:39:33.805Z,1.30
2023-02-25T16:42:09.542Z,1.20
2023-02-25T16:44:46.750Z,1.20
2023-02-25T16:47:22.260Z,1.50
2023-02-25T16:49:56.379Z,1.50
2023-02-25T16:52:31.457Z,1.77
2023-02-25T16:55:05.776Z,1.40
2023-02-25T16:57:38.748Z,1.20
2023-02-25T17:00:17.644Z,1.40
2023-02-25T17:02:51.088Z,2.07
2023-02-25T17:05:29.155Z,1.40
2023-02-25T17:08:09.438Z,1.13
2023-02-25T17:10:44.749Z,1.60
2023-02-25T17:13:20.736Z,1.27
2023-02-25T17:15:55.369Z,1.47
2023-02-25T17:18:32.112Z,1.50
2023-02-25T17:21:06.402Z,1.50
2023-02-25T17:23:40.456Z,1.50
2023-02-25T17:26:16.041Z,1.73
2023-02-25T17:28:50.332Z,1.67
2023-02-25T17:31:26.596Z,1.50
2023-02-25T17:34:00.875Z,1.20
2023-02-25T17:36:35.289Z,1.50
2023-02-25T17:39:09.597Z,1.00
2023-02-25T17:41:42.916Z,1.30
2023-02-25T17:44:30.515Z,1.50
2023-02-25T17:47:08.943Z,1.60
2023-02-25T17:49:44.237Z,1.90
2023-02-25T17:52:21.713Z,1.73
2023-02-25T17:54:57.184Z,1.80
2023-02-25T17:57:34.042Z,1.90
2023-02-25T18:00:16.417Z,1.70
2023-02-25T18:03:09.246Z,2.30
2023-02-25T18:05:49.479Z,1.53
2023-02-25T18:08:22.976Z,1.90
2023-02-25T18:10:57.044Z,1.53
2023-02-25T18:13:36.226Z,1.57
2023-02-25T18:16:23.855Z,1.80
2023-02-25T18:18:59.832Z,2.23
2023-02-25T18:21:40.022Z,1.43
2023-02-25T18:24:22.801Z,2.27
2023-02-25T18:27:02.698Z,1.73
2023-02-25T18:29:35.576Z,2.00
2023-02-25T18:32:12.846Z,2.03
2023-02-25T18:34:47.112Z,2.27
2023-02-25T18:37:20.328Z,2.50
2023-02-25T18:39:52.973Z,2.20
2023-02-25T18:42:26.092Z,2.10
2023-02-25T18:44:58.819Z,2.30
2023-02-25T18:47:31.341Z,1.67
2023-02-25T18:50:05.811Z,2.20
2023-02-25T18:52:46.409Z,1.83
2023-02-25T18:55:21.394Z,1.57
2023-02-25T18:57:54.395Z,1.80
2023-02-25T19:00:28.339Z,2.07
2023-02-25T19:03:02.719Z,2.13
2023-02-25T19:05:36.934Z,2.17
2023-02-25T19:08:12.322Z,2.17
2023-02-25T19:10:52.867Z,1.70
2023-02-25T19:13:28.080Z,2.20
2023-02-25T19:16:03.859Z,2.17
2023-02-25T19:18:37.601Z,2.27
2023-02-25T19:21:14.477Z,2.00
2023-02-25T19:23:47.925Z,2.40
2023-02-25T19:26:22.281Z,1.90
2023-02-25T19:28:55.047Z,1.87
2023-02-25T19:31:27.830Z,2.10
2023-02-25T19:34:02.812Z,1.80
2023-02-25T19:36:39.415Z,2.13
2023-02-25T19:39:14.186Z,1.97
2023-02-25T19:41:46.924Z,1.80
2023-02-25T19:44:19.516Z,1.80
2023-02-25T19:46:52.232Z,1.50
2023-02-25T19:49:25.149Z,1.80
2023-02-25T19:51:59.522Z,1.87
2023-02-25T19:54:32.276Z,2.03
2023-02-25T19:57:05.356Z,1.90
2023-02-25T19:59:38.098Z,1.90
2023-02-25T20:02:13.222Z,2.10
2023-02-25T20:04:48.563Z,1.43
2023-02-25T20:07:22.754Z,2.10
2023-02-25T20:09:55.585Z,1.93
2023-02-25T20:12:28.457Z,1.60
2023-02-25T20:15:01.516Z,2.13
2023-02-25T20:17:36.278Z,1.80
2023-02-25T20:20:09.521Z,1.63
2023-02-25T20:22:43.617Z,2.00
2023-02-25T20:25:16.289Z,2.00
2023-02-25T20:27:49.105Z,1.80
2023-02-25T20:30:22.984Z,1.80
2023-02-25T20:33:03.537Z,1.70
2023-02-25T20:35:36.507Z,1.80
2023-02-25T20:38:14.639Z,1.90
2023-02-25T20:40:47.438Z,1.80
2023-02-25T20:43:20.230Z,1.87
2023-02-25T20:45:53.112Z,1.87
2023-02-25T20:48:27.616Z,1.53
2023-02-25T20:51:00.529Z,1.97
2023-02-25T20:53:35.356Z,2.13
2023-02-25T20:56:11.122Z,1.80
2023-02-25T20:58:43.992Z,2.00
2023-02-25T21:01:16.904Z,2.20
2023-02-25T21:03:50.221Z,1.67
2023-02-25T21:06:25.692Z,2.43
2023-02-25T21:09:00.417Z,2.00
2023-02-25T21:11:33.395Z,1.77
2023-02-25T21:14:09.076Z,2.10
2023-02-25T21:16:42.029Z,2.10
2023-02-25T21:19:14.804Z,2.23
2023-02-25T21:21:47.519Z,1.80
2023-02-25T21:24:21.876Z,1.80
2023-02-25T21:26:54.683Z,1.73
2023-02-25T21:29:27.636Z,1.80
2023-02-25T21:32:00.427Z,1.97
2023-02-25T21:34:33.112Z,1.73
2023-02-25T21:37:05.959Z,1.77
2023-02-25T21:39:40.972Z,1.77
2023-02-25T21:42:13.780Z,1.60
2023-02-25T21:44:48.915Z,1.97
2023-02-25T21:47:21.635Z,1.60
2023-02-25T21:49:55.234Z,1.93
2023-02-25T21:52:27.963Z,2.00
2023-02-25T21:55:04.526Z,1.90
2023-02-25T21:57:38.332Z,1.93
2023-02-25T22:00:12.131Z,2.00
2023-02-25T22:02:46.201Z,2.00
2023-02-25T22:05:21.576Z,1.90
2023-02-25T22:07:54.435Z,1.60
2023-02-25T22:10:28.638Z,2.03
2023-02-25T22:13:01.312Z,2.00
2023-02-25T22:15:34.057Z,1.90
2023-02-25T22:18:06.939Z,2.20
2023-02-25T22:20:39.691Z,1.63
2023-02-25T22:23:12.494Z,2.23
2023-02-25T22:25:46.518Z,2.00
2023-02-25T22:28:19.386Z,1.90
2023-02-25T22:30:52.362Z,2.20
2023-02-25T22:33:25.282Z,1.97
2023-02-25T22:35:58.411Z,1.73
2023-02-25T22:38:31.683Z,1.90
2023-02-25T22:41:06.542Z,1.97
2023-02-25T22:43:39.272Z,1.67
2023-02-25T22:46:13.340Z,1.90
2023-02-25T22:48:46.915Z,1.70
2023-02-25T22:51:21.343Z,1.90
2023-02-25T22:53:54.517Z,1.47
2023-02-25T22:56:28.716Z,1.83
2023-02-25T22:59:01.469Z,1.80
2023-02-25T23:01:38.637Z,1.63
2023-02-25T23:04:11.425Z,1.83
2023-02-25T23:06:45.163Z,2.30
2023-02-25T23:09:18.451Z,1.77
2023-02-25T23:11:53.035Z,1.60
2023-02-25T23:14:27.883Z,2.10
2023-02-25T23:17:00.770Z,1.90
2023-02-25T23:19:33.447Z,1.83
2023-02-25T23:22:06.265Z,1.90
2023-02-25T23:24:39.020Z,1.70
2023-02-25T23:27:14.593Z,1.87
2023-02-25T23:29:47.381Z,1.90
2023-02-25T23:32:20.488Z,2.07
2023-02-25T23:34:53.233Z,1.60
2023-02-25T23:37:26.041Z,1.83
2023-02-25T23:39:58.937Z,1.93
2023-02-25T23:42:33.998Z,1.77
2023-02-25T23:45:07.104Z,1.97
2023-02-25T23:47:42.695Z,2.20
2023-02-25T23:50:16.675Z,1.40
2023-02-25T23:52:49.394Z,1.80
2023-02-25T23:55:22.220Z,1.53
2023-02-25T23:57:56.263Z,1.80
